O I Sea — CFL746 — position and weather

sailwx.info

Track history (hours):
 
Tides and Currents Weather Stations Pressure Air Temp Water Temp Dewpoint Dewpoint Depression Visibility Wind Speed Wind Dir Waves Ship Positions

O I Sea

Last reported at 2018-Jul-22 21:19 UTC. Time now 2018-Jul-23 17:26 UTC.
Position N 49°16' W 123°07'.

Length 23 m.

MMSI: 316023741.

Date/timePositionNaut miles runAvg speedWind from/ knotsBaromVisibWave heightAir tempDewpointWater temp
2018-Jul-22 21:19N 49°16' W 123°07'27 7.6
2018-Jul-22 17:46N 48°51' W 123°22'  
2018-Jul-15 23:58N 49°16' W 123°07'2 2.7
2018-Jul-15 23:09N 49°18' W 123°06'4 8.3
2018-Jul-15 22:40N 49°18' W 122°60'1 8.9
2018-Jul-15 22:30N 49°18' W 122°57'5 8.4
2018-Jul-15 21:51N 49°23' W 122°53'2 3.5
2018-Jul-15 21:23N 49°21' W 122°53'3 7.1
2018-Jul-15 20:59N 49°19' W 122°56'8 5.1
2018-Jul-15 19:26N 49°16' W 123°08'  
Track history (hours):
 
Tides and Currents Weather Stations Pressure Air Temp Water Temp Dewpoint Dewpoint Depression Visibility Wind Speed Wind Dir Waves Ship Positions

O I Sea

Last reported at 2018-Jul-22 21:19 UTC. Time now 2018-Jul-23 17:26 UTC.
Position N 49°16' W 123°07'.

Length 23 m.

MMSI: 316023741.

Date/timePositionNaut miles runAvg speedWind from/ knotsBaromVisibWave heightAir tempDewpointWater temp
2018-Jul-22 21:19N 49°16' W 123°07'27 7.6
2018-Jul-22 17:46N 48°51' W 123°22'  
2018-Jul-15 23:58N 49°16' W 123°07'2 2.7
2018-Jul-15 23:09N 49°18' W 123°06'4 8.3
2018-Jul-15 22:40N 49°18' W 122°60'1 8.9
2018-Jul-15 22:30N 49°18' W 122°57'5 8.4
2018-Jul-15 21:51N 49°23' W 122°53'2 3.5
2018-Jul-15 21:23N 49°21' W 122°53'3 7.1
2018-Jul-15 20:59N 49°19' W 122°56'8 5.1
2018-Jul-15 19:26N 49°16' W 123°08'  

Dump ship's entire track history